createdAt,value
2019-01-12T00:00:40.657Z,1.00
2019-01-12T00:03:09.677Z,1.22
2019-01-12T00:05:39.841Z,1.45
2019-01-12T00:08:08.849Z,2.17
2019-01-12T00:10:37.955Z,1.42
2019-01-12T00:13:08.967Z,1.95
2019-01-12T00:15:37.707Z,1.42
2019-01-12T00:18:06.809Z,1.02
2019-01-12T00:20:35.806Z,1.90
2019-01-12T00:23:04.850Z,1.20
2019-01-12T00:25:34.024Z,1.22
2019-01-12T00:28:03.000Z,1.30
2019-01-12T00:30:32.046Z,1.35
2019-01-12T00:33:03.107Z,1.75
2019-01-12T00:35:32.057Z,1.62
2019-01-12T00:38:01.145Z,1.07
2019-01-12T00:40:30.155Z,1.75
2019-01-12T00:43:01.320Z,1.35
2019-01-12T00:45:30.631Z,1.37
2019-01-12T00:47:59.839Z,1.42
2019-01-12T00:50:29.633Z,1.45
2019-01-12T00:52:58.855Z,0.98
2019-01-12T00:55:28.091Z,0.98
2019-01-12T00:57:57.327Z,1.07
2019-01-12T01:00:26.655Z,1.17
2019-01-12T01:02:55.834Z,1.10
2019-01-12T01:05:25.028Z,0.80
2019-01-12T01:07:54.158Z,0.70
2019-01-12T01:10:23.616Z,0.62
2019-01-12T01:12:52.740Z,0.80
2019-01-12T01:15:23.419Z,0.85
2019-01-12T01:17:52.572Z,0.98
2019-01-12T01:20:21.888Z,1.47
2019-01-12T01:22:51.062Z,1.27
2019-01-12T01:25:20.205Z,1.87
2019-01-12T01:27:49.359Z,1.45
2019-01-12T01:30:19.803Z,1.32
2019-01-12T01:32:48.974Z,1.72
2019-01-12T01:35:18.149Z,1.12
2019-01-12T01:37:47.275Z,1.47
2019-01-12T01:40:17.921Z,1.52
2019-01-12T01:42:47.179Z,1.55
2019-01-12T01:45:17.191Z,1.62
2019-01-12T01:47:46.356Z,1.57
2019-01-12T01:50:16.123Z,1.42
2019-01-12T01:52:45.383Z,1.82
2019-01-12T01:55:15.082Z,1.40
2019-01-12T01:57:45.155Z,1.55
2019-01-12T02:00:16.609Z,1.70
2019-01-12T02:02:45.993Z,1.90
2019-01-12T02:05:15.190Z,1.80
2019-01-12T02:07:44.438Z,1.62
2019-01-12T02:10:16.749Z,1.90
2019-01-12T02:12:45.866Z,2.47
2019-01-12T02:15:15.578Z,4.25
2019-01-12T02:17:44.714Z,4.58
2019-01-12T02:20:14.844Z,4.35
2019-01-12T02:22:44.649Z,5.65
2019-01-12T02:25:14.144Z,5.28
2019-01-12T02:27:43.453Z,6.28
2019-01-12T02:30:19.038Z,6.62
2019-01-12T02:32:48.216Z,8.05
2019-01-12T02:35:17.473Z,8.70
2019-01-12T02:37:46.670Z,9.58
2019-01-12T02:40:15.857Z,8.83
2019-01-12T02:42:45.103Z,8.90
2019-01-12T02:45:14.383Z,10.95
2019-01-12T02:47:44.719Z,9.98
2019-01-12T02:50:14.119Z,10.58
2019-01-12T02:52:43.371Z,11.85
2019-01-12T02:55:12.599Z,11.03
2019-01-12T02:57:41.860Z,10.85
2019-01-12T03:00:14.531Z,12.45
2019-01-12T03:02:43.771Z,12.58
2019-01-12T03:05:13.453Z,11.68
2019-01-12T03:07:42.739Z,11.83
2019-01-12T03:10:13.337Z,10.75
2019-01-12T03:12:42.588Z,12.28
2019-01-12T03:15:14.301Z,12.80
2019-01-12T03:17:43.528Z,11.30
2019-01-12T03:20:14.523Z,12.37
2019-01-12T03:22:43.761Z,13.70
2019-01-12T03:25:18.310Z,13.90
2019-01-12T03:27:43.941Z,13.08
2019-01-12T03:30:19.953Z,12.50
2019-01-12T03:32:51.619Z,12.13
2019-01-12T03:35:20.801Z,12.18
2019-01-12T03:37:49.951Z,13.20
2019-01-12T03:40:22.798Z,12.30
2019-01-12T03:42:52.001Z,12.33
2019-01-12T03:45:21.417Z,11.12
2019-01-12T03:47:50.821Z,11.48
2019-01-12T03:50:20.123Z,10.95
2019-01-12T03:52:49.284Z,10.18
2019-01-12T03:55:25.383Z,10.23
2019-01-12T03:57:49.463Z,9.35
2019-01-12T04:00:23.491Z,8.85
2019-01-12T04:02:52.766Z,9.73
2019-01-12T04:05:22.007Z,9.58
2019-01-12T04:07:51.251Z,7.90
2019-01-12T04:10:20.404Z,7.35
2019-01-12T04:12:49.656Z,7.50
2019-01-12T04:15:19.014Z,7.55
2019-01-12T04:17:48.387Z,8.50
2019-01-12T04:20:19.304Z,7.78
2019-01-12T04:22:48.415Z,7.67
2019-01-12T04:25:17.722Z,7.40
2019-01-12T04:27:46.924Z,7.58
2019-01-12T04:30:19.617Z,7.90
2019-01-12T04:32:50.347Z,6.53
2019-01-12T04:35:21.004Z,7.80
2019-01-12T04:37:52.135Z,7.37
2019-01-12T04:40:21.226Z,6.45
2019-01-12T04:42:51.819Z,6.30
2019-01-12T04:45:23.442Z,5.67
2019-01-12T04:47:55.090Z,5.90
2019-01-12T04:50:24.318Z,5.97
2019-01-12T04:52:53.518Z,6.20
2019-01-12T04:55:22.776Z,4.78
2019-01-12T04:57:53.092Z,5.90
2019-01-12T05:00:23.030Z,5.17
2019-01-12T05:02:53.417Z,6.22
2019-01-12T05:05:22.683Z,5.25
2019-01-12T05:07:51.777Z,5.72
2019-01-12T05:10:21.026Z,5.55
2019-01-12T05:12:50.251Z,6.42
2019-01-12T05:15:19.557Z,5.50
2019-01-12T05:17:48.752Z,6.20
2019-01-12T05:20:21.609Z,5.53
2019-01-12T05:22:51.894Z,6.50
2019-01-12T05:25:21.032Z,6.67
2019-01-12T05:27:50.275Z,5.75
2019-01-12T05:30:23.127Z,5.95
2019-01-12T05:32:52.477Z,6.65
2019-01-12T05:35:21.947Z,6.20
2019-01-12T05:37:51.262Z,5.70
2019-01-12T05:40:22.534Z,5.83
2019-01-12T05:42:52.806Z,5.78
2019-01-12T05:45:22.302Z,5.20
2019-01-12T05:47:52.637Z,4.70
2019-01-12T05:50:22.090Z,4.90
2019-01-12T05:52:52.151Z,4.87
2019-01-12T05:55:21.311Z,5.28
2019-01-12T05:57:50.559Z,5.20
2019-01-12T06:00:21.563Z,5.15
2019-01-12T06:02:50.675Z,5.78
2019-01-12T06:05:19.885Z,4.85
2019-01-12T06:07:49.231Z,5.40
2019-01-12T06:10:18.409Z,5.17
2019-01-12T06:12:47.569Z,5.35
2019-01-12T06:15:17.370Z,5.30
2019-01-12T06:17:46.524Z,6.10
2019-01-12T06:20:16.380Z,6.50
2019-01-12T06:22:45.583Z,6.70
2019-01-12T06:25:15.280Z,6.45
2019-01-12T06:27:46.605Z,6.90
2019-01-12T06:30:20.196Z,7.65
2019-01-12T06:32:49.349Z,7.30
2019-01-12T06:35:18.602Z,7.22
2019-01-12T06:37:47.844Z,8.25
2019-01-12T06:40:18.939Z,8.23
2019-01-12T06:42:48.373Z,7.50
2019-01-12T06:45:18.289Z,8.15
2019-01-12T06:47:47.640Z,7.55
2019-01-12T06:50:18.442Z,7.85
2019-01-12T06:52:47.672Z,7.80
2019-01-12T06:55:16.903Z,7.62
2019-01-12T06:57:46.332Z,8.00
2019-01-12T07:00:18.018Z,7.75
2019-01-12T07:02:48.346Z,6.75
2019-01-12T07:05:17.763Z,7.67
2019-01-12T07:07:46.918Z,7.95
2019-01-12T07:10:18.850Z,7.50
2019-01-12T07:12:49.617Z,7.30
2019-01-12T07:15:18.802Z,8.15
2019-01-12T07:17:50.004Z,7.75
2019-01-12T07:20:22.043Z,8.33
2019-01-12T07:22:52.306Z,8.08
2019-01-12T07:25:21.514Z,7.70
2019-01-12T07:27:50.624Z,8.40
2019-01-12T07:30:21.753Z,7.97
2019-01-12T07:32:50.934Z,9.00
2019-01-12T07:35:21.413Z,8.30
2019-01-12T07:37:50.617Z,7.35
2019-01-12T07:40:19.753Z,9.13
2019-01-12T07:42:49.252Z,7.87
2019-01-12T07:45:18.387Z,8.05
2019-01-12T07:47:47.832Z,8.40
2019-01-12T07:50:17.076Z,8.93
2019-01-12T07:52:46.255Z,8.10
2019-01-12T07:55:15.403Z,9.03
2019-01-12T07:57:44.565Z,9.53
2019-01-12T08:00:16.731Z,7.65
2019-01-12T08:02:46.058Z,8.78
2019-01-12T08:05:16.135Z,9.15
2019-01-12T08:07:45.255Z,9.55
2019-01-12T08:10:17.175Z,10.43
2019-01-12T08:12:46.449Z,8.33
2019-01-12T08:15:17.489Z,9.93
2019-01-12T08:17:46.652Z,9.65
2019-01-12T08:20:16.635Z,8.73
2019-01-12T08:22:45.799Z,8.13
2019-01-12T08:25:14.939Z,8.68
2019-01-12T08:27:45.211Z,7.87
2019-01-12T08:30:16.611Z,9.55
2019-01-12T08:32:45.840Z,8.30
2019-01-12T08:35:15.886Z,8.73
2019-01-12T08:37:45.037Z,7.28
2019-01-12T08:40:14.527Z,7.50
2019-01-12T08:42:43.679Z,7.47
2019-01-12T08:45:13.072Z,7.87
2019-01-12T08:47:42.406Z,7.53
2019-01-12T08:50:14.420Z,6.62
2019-01-12T08:52:43.734Z,7.47
2019-01-12T08:55:13.150Z,6.05
2019-01-12T08:57:42.351Z,6.62
2019-01-12T09:00:22.498Z,6.60
2019-01-12T09:02:53.019Z,6.92
2019-01-12T09:05:22.214Z,6.78
2019-01-12T09:07:51.545Z,6.12
2019-01-12T09:10:22.029Z,6.28
2019-01-12T09:12:51.451Z,5.15
2019-01-12T09:15:21.133Z,5.05
2019-01-12T09:17:51.150Z,4.33
2019-01-12T09:20:20.962Z,3.98
2019-01-12T09:22:50.680Z,3.50
2019-01-12T09:25:21.774Z,3.55
2019-01-12T09:27:50.703Z,3.92
2019-01-12T09:30:23.210Z,2.92
2019-01-12T09:32:52.683Z,3.40
2019-01-12T09:35:21.812Z,2.95
2019-01-12T09:37:51.087Z,3.47
2019-01-12T09:40:21.605Z,2.92
2019-01-12T09:42:51.274Z,2.92
2019-01-12T09:45:20.507Z,3.33
2019-01-12T09:47:49.685Z,4.10
2019-01-12T09:50:20.037Z,4.40
2019-01-12T09:52:49.387Z,3.37
2019-01-12T09:55:21.007Z,4.45
2019-01-12T09:57:50.201Z,4.15
2019-01-12T10:00:21.807Z,4.33
2019-01-12T10:02:50.906Z,3.65
2019-01-12T10:05:20.284Z,3.27
2019-01-12T10:07:49.375Z,3.67
2019-01-12T10:10:19.938Z,4.20
2019-01-12T10:12:49.356Z,4.17
2019-01-12T10:15:18.506Z,5.17
2019-01-12T10:17:49.506Z,5.12
2019-01-12T10:20:19.527Z,3.90
2019-01-12T10:22:48.815Z,4.03
2019-01-12T10:25:18.158Z,4.78
2019-01-12T10:27:47.834Z,4.70
2019-01-12T10:30:22.083Z,5.10
2019-01-12T10:32:51.276Z,4.97
2019-01-12T10:35:20.487Z,4.53
2019-01-12T10:37:49.624Z,4.28
2019-01-12T10:40:19.452Z,3.75
2019-01-12T10:42:48.638Z,4.45
2019-01-12T10:45:20.285Z,4.42
2019-01-12T10:47:49.834Z,4.12
2019-01-12T10:50:29.443Z,4.42
2019-01-12T10:52:58.539Z,4.20
2019-01-12T10:55:28.751Z,4.47
2019-01-12T10:57:58.410Z,4.40
2019-01-12T11:00:30.666Z,4.33
2019-01-12T11:03:01.312Z,4.25
2019-01-12T11:05:30.982Z,4.35
2019-01-12T11:08:00.433Z,3.80
2019-01-12T11:10:30.493Z,3.87
2019-01-12T11:13:02.099Z,4.08
2019-01-12T11:15:31.310Z,3.95
2019-01-12T11:18:00.538Z,4.33
2019-01-12T11:20:30.843Z,5.22
2019-01-12T11:23:00.071Z,4.37
2019-01-12T11:25:33.585Z,4.17
2019-01-12T11:28:01.093Z,4.53
2019-01-12T11:30:31.281Z,4.92
2019-01-12T11:33:00.449Z,4.15
2019-01-12T11:35:29.649Z,4.40
2019-01-12T11:37:58.787Z,5.10
2019-01-12T11:40:27.899Z,4.50
2019-01-12T11:42:56.992Z,4.95
2019-01-12T11:45:26.714Z,4.20
2019-01-12T11:47:55.909Z,5.58
2019-01-12T11:50:25.089Z,5.40
2019-01-12T11:52:54.212Z,4.42
2019-01-12T11:55:23.410Z,4.45
2019-01-12T11:57:52.534Z,4.90
2019-01-12T12:00:24.006Z,4.42
2019-01-12T12:02:53.231Z,4.30
2019-01-12T12:05:22.403Z,4.30
2019-01-12T12:07:52.974Z,4.33
2019-01-12T12:10:22.605Z,4.17
2019-01-12T12:12:51.763Z,4.47
2019-01-12T12:15:21.735Z,3.65
2019-01-12T12:17:50.837Z,3.15
2019-01-12T12:20:21.875Z,4.03
2019-01-12T12:22:51.319Z,3.10
2019-01-12T12:25:20.465Z,3.65
2019-01-12T12:27:49.679Z,3.55
2019-01-12T12:30:24.334Z,3.45
2019-01-12T12:32:53.472Z,3.62
2019-01-12T12:35:22.565Z,3.90
2019-01-12T12:37:52.723Z,3.55
2019-01-12T12:40:22.569Z,3.15
2019-01-12T12:42:53.141Z,3.58
2019-01-12T12:45:25.547Z,3.47
2019-01-12T12:47:54.703Z,2.90
2019-01-12T12:50:23.887Z,3.20
2019-01-12T12:52:53.112Z,3.00
2019-01-12T12:55:22.212Z,2.75
2019-01-12T12:57:51.328Z,2.90
2019-01-12T13:00:22.108Z,2.90
2019-01-12T13:02:51.254Z,3.75
2019-01-12T13:05:20.383Z,3.12
2019-01-12T13:07:49.524Z,3.33
2019-01-12T13:10:22.404Z,3.08
2019-01-12T13:12:51.534Z,2.83
2019-01-12T13:15:22.303Z,3.27
2019-01-12T13:17:51.408Z,3.02
2019-01-12T13:20:20.927Z,3.45
2019-01-12T13:22:52.412Z,3.40
2019-01-12T13:25:21.514Z,2.80
2019-01-12T13:27:50.772Z,2.98
2019-01-12T13:30:25.182Z,3.33
2019-01-12T13:32:54.338Z,2.83
2019-01-12T13:35:23.493Z,2.62
2019-01-12T13:37:52.620Z,3.37
2019-01-12T13:40:24.548Z,3.02
2019-01-12T13:42:53.752Z,3.00
2019-01-12T13:45:23.006Z,2.70
2019-01-12T13:47:52.321Z,2.55
2019-01-12T13:50:24.556Z,3.25
2019-01-12T13:52:54.682Z,2.85
2019-01-12T13:55:23.860Z,2.30
2019-01-12T13:57:52.988Z,3.27
2019-01-12T14:00:24.398Z,1.98
2019-01-12T14:02:53.664Z,2.70
2019-01-12T14:05:22.762Z,3.17
2019-01-12T14:07:56.527Z,2.98
2019-01-12T14:10:24.164Z,2.70
2019-01-12T14:12:53.386Z,2.77
2019-01-12T14:15:22.733Z,2.87
2019-01-12T14:17:51.934Z,2.77
2019-01-12T14:20:23.318Z,2.50
2019-01-12T14:22:52.522Z,3.20
2019-01-12T14:25:21.985Z,3.10
2019-01-12T14:27:54.891Z,2.60
2019-01-12T14:30:23.066Z,2.90
2019-01-12T14:32:52.377Z,2.98
2019-01-12T14:35:23.178Z,2.50
2019-01-12T14:37:52.703Z,2.65
2019-01-12T14:40:21.850Z,2.77
2019-01-12T14:42:50.970Z,2.12
2019-01-12T14:45:25.403Z,3.05
2019-01-12T14:47:54.603Z,2.50
2019-01-12T14:50:23.788Z,2.42
2019-01-12T14:52:52.979Z,2.40
2019-01-12T14:55:22.467Z,2.83
2019-01-12T14:57:51.658Z,4.25
2019-01-12T15:00:22.829Z,2.52
2019-01-12T15:02:52.164Z,2.85
2019-01-12T15:05:26.015Z,2.72
2019-01-12T15:07:55.047Z,2.62
2019-01-12T15:10:24.084Z,3.33
2019-01-12T15:12:55.436Z,3.75
2019-01-12T15:15:24.450Z,2.60
2019-01-12T15:17:53.501Z,2.05
2019-01-12T15:20:24.361Z,3.27
2019-01-12T15:22:53.389Z,2.12
2019-01-12T15:25:22.441Z,3.05
2019-01-12T15:27:51.514Z,2.72
2019-01-12T15:30:22.618Z,2.65
2019-01-12T15:32:51.623Z,3.12
2019-01-12T15:35:21.482Z,2.52
2019-01-12T15:37:50.554Z,3.15
2019-01-12T15:40:22.058Z,3.17
2019-01-12T15:42:51.118Z,3.37
2019-01-12T15:45:23.383Z,3.62
2019-01-12T15:47:53.512Z,3.20
2019-01-12T15:50:24.305Z,3.17
2019-01-12T15:52:53.483Z,3.83
2019-01-12T15:55:22.786Z,3.42
2019-01-12T15:57:53.124Z,3.50
2019-01-12T16:00:24.367Z,3.47
2019-01-12T16:02:53.433Z,3.05
2019-01-12T16:05:22.442Z,3.65
2019-01-12T16:07:51.468Z,4.42
2019-01-12T16:10:20.616Z,3.20
2019-01-12T16:12:49.618Z,2.95
2019-01-12T16:15:20.775Z,3.67
2019-01-12T16:17:52.102Z,2.95
2019-01-12T16:20:28.929Z,3.80
2019-01-12T16:22:57.970Z,3.12
2019-01-12T16:25:26.956Z,3.92
2019-01-12T16:27:55.979Z,3.83
2019-01-12T16:30:25.021Z,2.72
2019-01-12T16:32:54.148Z,3.08
2019-01-12T16:35:23.182Z,3.35
2019-01-12T16:37:52.410Z,3.17
2019-01-12T16:40:23.960Z,2.92
2019-01-12T16:42:53.121Z,3.80
2019-01-12T16:45:22.158Z,3.27
2019-01-12T16:47:51.207Z,3.58
2019-01-12T16:50:20.253Z,3.85
2019-01-12T16:52:49.341Z,2.98
2019-01-12T16:55:18.456Z,2.98
2019-01-12T16:57:47.773Z,2.87
2019-01-12T17:00:24.201Z,2.72
2019-01-12T17:02:53.382Z,2.65
2019-01-12T17:05:24.292Z,3.55
2019-01-12T17:07:53.411Z,2.98
2019-01-12T17:10:22.724Z,3.17
2019-01-12T17:12:51.943Z,3.50
2019-01-12T17:15:22.437Z,2.90
2019-01-12T17:17:51.595Z,4.37
2019-01-12T17:20:26.073Z,3.55
2019-01-12T17:23:01.093Z,3.27
2019-01-12T17:25:30.169Z,3.80
2019-01-12T17:27:59.192Z,4.97
2019-01-12T17:30:28.324Z,4.35
2019-01-12T17:32:57.517Z,4.67
2019-01-12T17:35:29.441Z,2.85
2019-01-12T17:37:57.754Z,3.15
2019-01-12T17:40:26.816Z,3.83
2019-01-12T17:42:55.837Z,3.08
2019-01-12T17:45:25.800Z,3.10
2019-01-12T17:47:54.827Z,3.00
2019-01-12T17:50:27.054Z,2.87
2019-01-12T17:52:56.539Z,3.25
2019-01-12T17:55:26.724Z,3.45
2019-01-12T17:57:55.749Z,3.85
2019-01-12T18:00:31.756Z,3.33
2019-01-12T18:03:00.798Z,3.15
2019-01-12T18:05:29.769Z,3.08
2019-01-12T18:07:59.066Z,3.30
2019-01-12T18:10:28.114Z,2.83
2019-01-12T18:13:05.037Z,3.20
2019-01-12T18:15:34.895Z,3.27
2019-01-12T18:18:04.061Z,3.60
2019-01-12T18:20:33.096Z,3.70
2019-01-12T18:23:02.172Z,3.90
2019-01-12T18:25:32.362Z,4.65
2019-01-12T18:28:01.651Z,4.55
2019-01-12T18:30:31.818Z,3.52
2019-01-12T18:33:03.248Z,4.08
2019-01-12T18:35:33.752Z,3.40
2019-01-12T18:38:02.934Z,3.12
2019-01-12T18:40:32.012Z,3.12
2019-01-12T18:43:09.966Z,3.80
2019-01-12T18:45:40.626Z,3.95
2019-01-12T18:48:09.606Z,3.55
2019-01-12T18:50:38.657Z,3.55
2019-01-12T18:53:07.697Z,3.67
2019-01-12T18:55:36.904Z,3.33
2019-01-12T18:58:05.916Z,3.55
2019-01-12T19:00:34.957Z,3.95
2019-01-12T19:03:04.490Z,4.37
2019-01-12T19:05:33.811Z,3.87
2019-01-12T19:08:02.883Z,3.33
2019-01-12T19:10:33.239Z,3.95
2019-01-12T19:13:02.297Z,3.37
2019-01-12T19:15:31.954Z,3.58
2019-01-12T19:18:00.989Z,3.72
2019-01-12T19:20:30.209Z,3.17
2019-01-12T19:22:59.425Z,3.08
2019-01-12T19:25:28.441Z,3.70
2019-01-12T19:27:57.458Z,3.22
2019-01-12T19:30:26.496Z,3.80
2019-01-12T19:32:55.489Z,3.33
2019-01-12T19:35:25.565Z,3.58
2019-01-12T19:37:54.544Z,3.85
2019-01-12T19:40:24.996Z,4.08
2019-01-12T19:42:54.040Z,3.98
2019-01-12T19:45:25.788Z,4.53
2019-01-12T19:47:54.867Z,3.27
2019-01-12T19:50:27.866Z,3.50
2019-01-12T19:52:57.204Z,4.00
2019-01-12T19:55:27.334Z,3.60
2019-01-12T19:57:57.105Z,2.87
2019-01-12T20:00:31.677Z,3.60
2019-01-12T20:03:01.558Z,3.52
2019-01-12T20:05:33.955Z,3.05
2019-01-12T20:08:03.909Z,3.50
2019-01-12T20:10:35.993Z,3.62
2019-01-12T20:13:10.004Z,3.30
2019-01-12T20:15:41.026Z,3.27
2019-01-12T20:18:10.200Z,3.25
2019-01-12T20:20:43.722Z,3.47
2019-01-12T20:23:13.436Z,3.35
2019-01-12T20:25:43.176Z,3.90
2019-01-12T20:28:17.784Z,2.83
2019-01-12T20:31:30.091Z,3.55
2019-01-12T20:34:14.064Z,3.98
2019-01-12T20:37:09.659Z,3.10
2019-01-12T20:40:12.166Z,3.17
2019-01-12T20:43:02.097Z,3.17
2019-01-12T20:45:43.159Z,2.60
2019-01-12T20:48:28.218Z,3.15
2019-01-12T20:51:21.791Z,3.95
2019-01-12T20:54:29.813Z,3.50
2019-01-12T20:57:55.090Z,3.83
2019-01-12T21:01:06.283Z,2.98
2019-01-12T21:03:55.391Z,3.85
2019-01-12T21:07:16.142Z,2.90
2019-01-12T21:10:09.770Z,3.25
2019-01-12T21:13:10.970Z,3.62
2019-01-12T21:15:44.802Z,3.22
2019-01-12T21:18:13.851Z,3.00
2019-01-12T21:20:43.027Z,3.17
2019-01-12T21:23:12.042Z,3.52
2019-01-12T21:25:41.053Z,3.25
2019-01-12T21:28:11.741Z,3.45
2019-01-12T21:30:40.801Z,3.15
2019-01-12T21:33:10.007Z,3.55
2019-01-12T21:35:40.109Z,2.70
2019-01-12T21:38:10.670Z,3.92
2019-01-12T21:40:39.758Z,3.83
2019-01-12T21:43:08.773Z,3.72
2019-01-12T21:45:37.722Z,3.80
2019-01-12T21:48:07.744Z,3.62
2019-01-12T21:50:36.762Z,3.17
2019-01-12T21:53:05.818Z,3.27
2019-01-12T21:55:34.854Z,2.80
2019-01-12T21:58:04.118Z,3.30
2019-01-12T22:00:33.197Z,3.40
2019-01-12T22:03:02.247Z,3.58
2019-01-12T22:05:31.509Z,2.92
2019-01-12T22:08:02.347Z,3.30
2019-01-12T22:10:31.545Z,3.22
2019-01-12T22:13:00.564Z,3.30
2019-01-12T22:15:29.689Z,3.75
2019-01-12T22:17:58.743Z,3.33
2019-01-12T22:20:27.802Z,2.77
2019-01-12T22:22:56.958Z,2.27
2019-01-12T22:25:26.160Z,2.35
2019-01-12T22:27:55.294Z,3.75
2019-01-12T22:30:24.444Z,2.40
2019-01-12T22:32:53.486Z,3.37
2019-01-12T22:35:22.522Z,3.65
2019-01-12T22:37:51.524Z,4.00
2019-01-12T22:40:20.989Z,3.17
2019-01-12T22:42:50.129Z,3.35
2019-01-12T22:45:19.205Z,4.00
2019-01-12T22:47:51.350Z,4.05
2019-01-12T22:50:20.459Z,4.10
2019-01-12T22:52:49.558Z,4.92
2019-01-12T22:55:18.573Z,4.60
2019-01-12T22:57:47.583Z,4.80
2019-01-12T23:00:33.159Z,5.00
2019-01-12T23:03:02.185Z,3.85
2019-01-12T23:05:31.292Z,4.55
2019-01-12T23:08:02.632Z,4.92
2019-01-12T23:10:33.075Z,5.83
2019-01-12T23:13:02.969Z,5.33
2019-01-12T23:15:31.988Z,5.45
2019-01-12T23:18:01.084Z,5.90
2019-01-12T23:20:30.326Z,5.30
2019-01-12T23:22:59.284Z,6.00
2019-01-12T23:25:28.570Z,6.17
2019-01-12T23:27:57.714Z,6.30
2019-01-12T23:30:28.318Z,6.15
2019-01-12T23:32:57.366Z,5.42
2019-01-12T23:35:29.572Z,6.62
2019-01-12T23:38:02.435Z,6.30
2019-01-12T23:40:31.600Z,6.28
2019-01-12T23:43:05.997Z,6.33
2019-01-12T23:45:34.933Z,6.55
2019-01-12T23:48:04.099Z,5.83
2019-01-12T23:50:33.184Z,6.45
2019-01-12T23:53:02.256Z,7.37
2019-01-12T23:55:31.310Z,6.87
2019-01-12T23:58:00.432Z,6.25
